sensor_id;sensor_type;location;lat;lon;timestamp;P1;durP1;ratioP1;P2;durP2;ratioP2
13973;SDS011;7060;43.770;4.008;2023-12-07T00:02:09;3.30;;;1.00;;
13973;SDS011;7060;43.770;4.008;2023-12-07T00:08:45;2.53;;;1.30;;
13973;SDS011;7060;43.770;4.008;2023-12-07T00:11:32;1.53;;;1.00;;
13973;SDS011;7060;43.770;4.008;2023-12-07T00:14:04;2.63;;;1.00;;
13973;SDS011;7060;43.770;4.008;2023-12-07T00:16:33;1.40;;;0.90;;
13973;SDS011;7060;43.770;4.008;2023-12-07T00:26:44;2.27;;;1.00;;
13973;SDS011;7060;43.770;4.008;2023-12-07T00:29:14;4.43;;;1.43;;
13973;SDS011;7060;43.770;4.008;2023-12-07T00:31:43;2.43;;;1.27;;
13973;SDS011;7060;43.770;4.008;2023-12-07T00:34:12;2.70;;;1.37;;
13973;SDS011;7060;43.770;4.008;2023-12-07T00:36:40;2.53;;;1.20;;
13973;SDS011;7060;43.770;4.008;2023-12-07T00:39:09;2.60;;;1.30;;
13973;SDS011;7060;43.770;4.008;2023-12-07T00:41:40;1.87;;;0.97;;
13973;SDS011;7060;43.770;4.008;2023-12-07T00:44:10;2.63;;;1.20;;
13973;SDS011;7060;43.770;4.008;2023-12-07T00:46:46;5.47;;;2.93;;
13973;SDS011;7060;43.770;4.008;2023-12-07T00:49:16;5.80;;;3.30;;
13973;SDS011;7060;43.770;4.008;2023-12-07T00:51:45;3.47;;;1.43;;
13973;SDS011;7060;43.770;4.008;2023-12-07T00:54:15;5.47;;;2.53;;
13973;SDS011;7060;43.770;4.008;2023-12-07T00:56:43;3.80;;;1.80;;
13973;SDS011;7060;43.770;4.008;2023-12-07T00:59:14;4.73;;;1.87;;
13973;SDS011;7060;43.770;4.008;2023-12-07T01:01:42;5.13;;;1.90;;
13973;SDS011;7060;43.770;4.008;2023-12-07T01:04:11;5.23;;;2.73;;
13973;SDS011;7060;43.770;4.008;2023-12-07T01:14:10;4.37;;;2.50;;
13973;SDS011;7060;43.770;4.008;2023-12-07T01:20:09;5.70;;;2.17;;
13973;SDS011;7060;43.770;4.008;2023-12-07T01:26:39;6.27;;;2.23;;
13973;SDS011;7060;43.770;4.008;2023-12-07T01:33:52;4.17;;;2.00;;
13973;SDS011;7060;43.770;4.008;2023-12-07T01:37:21;4.53;;;1.60;;
13973;SDS011;7060;43.770;4.008;2023-12-07T01:44:08;4.63;;;1.90;;
13973;SDS011;7060;43.770;4.008;2023-12-07T01:46:37;3.60;;;1.87;;
13973;SDS011;7060;43.770;4.008;2023-12-07T01:50:25;5.20;;;1.70;;
13973;SDS011;7060;43.770;4.008;2023-12-07T01:53:03;3.33;;;1.40;;
13973;SDS011;7060;43.770;4.008;2023-12-07T02:02:17;3.67;;;2.17;;
13973;SDS011;7060;43.770;4.008;2023-12-07T02:04:49;2.17;;;1.20;;
13973;SDS011;7060;43.770;4.008;2023-12-07T02:16:17;1.77;;;0.80;;
13973;SDS011;7060;43.770;4.008;2023-12-07T02:18:52;1.63;;;0.97;;
13973;SDS011;7060;43.770;4.008;2023-12-07T02:21:34;2.33;;;0.90;;
13973;SDS011;7060;43.770;4.008;2023-12-07T02:24:06;2.07;;;0.63;;
13973;SDS011;7060;43.770;4.008;2023-12-07T02:26:40;1.70;;;1.00;;
13973;SDS011;7060;43.770;4.008;2023-12-07T02:29:20;3.03;;;1.00;;
13973;SDS011;7060;43.770;4.008;2023-12-07T02:31:49;1.60;;;0.80;;
13973;SDS011;7060;43.770;4.008;2023-12-07T02:34:18;1.17;;;0.70;;
13973;SDS011;7060;43.770;4.008;2023-12-07T02:36:54;0.90;;;0.60;;
13973;SDS011;7060;43.770;4.008;2023-12-07T02:39:31;2.27;;;0.87;;
13973;SDS011;7060;43.770;4.008;2023-12-07T02:45:25;1.80;;;0.70;;
13973;SDS011;7060;43.770;4.008;2023-12-07T03:04:40;1.73;;;0.63;;
13973;SDS011;7060;43.770;4.008;2023-12-07T03:12:19;2.83;;;1.40;;
13973;SDS011;7060;43.770;4.008;2023-12-07T03:26:38;2.37;;;0.77;;
13973;SDS011;7060;43.770;4.008;2023-12-07T03:30:06;1.43;;;0.77;;
13973;SDS011;7060;43.770;4.008;2023-12-07T03:32:39;2.03;;;0.87;;
13973;SDS011;7060;43.770;4.008;2023-12-07T03:35:13;1.83;;;1.00;;
13973;SDS011;7060;43.770;4.008;2023-12-07T03:46:17;1.60;;;0.60;;
13973;SDS011;7060;43.770;4.008;2023-12-07T04:01:07;2.30;;;0.80;;
13973;SDS011;7060;43.770;4.008;2023-12-07T04:03:37;1.60;;;0.80;;
13973;SDS011;7060;43.770;4.008;2023-12-07T04:18:06;1.67;;;0.70;;
13973;SDS011;7060;43.770;4.008;2023-12-07T04:25:08;1.20;;;0.60;;
13973;SDS011;7060;43.770;4.008;2023-12-07T04:27:37;1.40;;;0.60;;
13973;SDS011;7060;43.770;4.008;2023-12-07T04:34:16;2.87;;;0.70;;
13973;SDS011;7060;43.770;4.008;2023-12-07T04:54:59;2.33;;;0.87;;
13973;SDS011;7060;43.770;4.008;2023-12-07T05:14:47;3.30;;;1.10;;
13973;SDS011;7060;43.770;4.008;2023-12-07T05:17:17;2.10;;;1.00;;
13973;SDS011;7060;43.770;4.008;2023-12-07T05:19:46;2.23;;;0.80;;
13973;SDS011;7060;43.770;4.008;2023-12-07T05:25:52;1.40;;;0.80;;
13973;SDS011;7060;43.770;4.008;2023-12-07T05:28:40;1.80;;;0.90;;
13973;SDS011;7060;43.770;4.008;2023-12-07T05:34:32;2.53;;;0.97;;
13973;SDS011;7060;43.770;4.008;2023-12-07T05:37:09;2.60;;;0.90;;
13973;SDS011;7060;43.770;4.008;2023-12-07T05:42:29;1.57;;;0.70;;
13973;SDS011;7060;43.770;4.008;2023-12-07T05:45:00;1.80;;;1.00;;
13973;SDS011;7060;43.770;4.008;2023-12-07T05:47:29;1.83;;;0.93;;
13973;SDS011;7060;43.770;4.008;2023-12-07T05:49:58;2.93;;;1.07;;
13973;SDS011;7060;43.770;4.008;2023-12-07T05:59:03;2.43;;;0.90;;
13973;SDS011;7060;43.770;4.008;2023-12-07T06:01:36;2.07;;;1.03;;
13973;SDS011;7060;43.770;4.008;2023-12-07T06:04:07;1.67;;;0.90;;
13973;SDS011;7060;43.770;4.008;2023-12-07T06:06:39;2.60;;;1.27;;
13973;SDS011;7060;43.770;4.008;2023-12-07T06:23:52;2.73;;;0.97;;
13973;SDS011;7060;43.770;4.008;2023-12-07T06:26:21;1.53;;;0.80;;
13973;SDS011;7060;43.770;4.008;2023-12-07T06:28:50;3.13;;;1.23;;
13973;SDS011;7060;43.770;4.008;2023-12-07T06:35:57;3.37;;;1.80;;
13973;SDS011;7060;43.770;4.008;2023-12-07T06:38:37;5.83;;;2.57;;
13973;SDS011;7060;43.770;4.008;2023-12-07T06:45:32;5.50;;;2.57;;
13973;SDS011;7060;43.770;4.008;2023-12-07T07:05:09;4.77;;;1.40;;
13973;SDS011;7060;43.770;4.008;2023-12-07T07:07:39;5.10;;;1.43;;
13973;SDS011;7060;43.770;4.008;2023-12-07T07:10:08;2.37;;;0.93;;
13973;SDS011;7060;43.770;4.008;2023-12-07T07:12:40;2.20;;;1.00;;
13973;SDS011;7060;43.770;4.008;2023-12-07T07:15:10;1.83;;;1.10;;
13973;SDS011;7060;43.770;4.008;2023-12-07T07:17:39;3.33;;;1.20;;
13973;SDS011;7060;43.770;4.008;2023-12-07T07:20:08;7.47;;;2.43;;
13973;SDS011;7060;43.770;4.008;2023-12-07T07:22:39;6.80;;;3.30;;
13973;SDS011;7060;43.770;4.008;2023-12-07T07:25:08;9.07;;;4.73;;
13973;SDS011;7060;43.770;4.008;2023-12-07T07:27:37;5.13;;;2.90;;
13973;SDS011;7060;43.770;4.008;2023-12-07T07:30:06;4.77;;;1.70;;
13973;SDS011;7060;43.770;4.008;2023-12-07T07:32:37;2.27;;;1.27;;
13973;SDS011;7060;43.770;4.008;2023-12-07T07:35:06;4.87;;;1.20;;
13973;SDS011;7060;43.770;4.008;2023-12-07T07:37:41;3.80;;;1.70;;
13973;SDS011;7060;43.770;4.008;2023-12-07T07:44:25;3.80;;;2.00;;
13973;SDS011;7060;43.770;4.008;2023-12-07T07:54:51;2.67;;;1.70;;
13973;SDS011;7060;43.770;4.008;2023-12-07T07:57:47;3.63;;;2.13;;
13973;SDS011;7060;43.770;4.008;2023-12-07T08:00:16;3.60;;;1.77;;
13973;SDS011;7060;43.770;4.008;2023-12-07T08:02:46;3.17;;;1.80;;
13973;SDS011;7060;43.770;4.008;2023-12-07T08:05:15;18.13;;;3.07;;
13973;SDS011;7060;43.770;4.008;2023-12-07T08:07:44;6.20;;;1.93;;
13973;SDS011;7060;43.770;4.008;2023-12-07T08:10:15;6.03;;;2.70;;
13973;SDS011;7060;43.770;4.008;2023-12-07T08:21:18;3.30;;;1.60;;
13973;SDS011;7060;43.770;4.008;2023-12-07T08:23:53;3.93;;;1.40;;
13973;SDS011;7060;43.770;4.008;2023-12-07T08:26:23;3.63;;;1.37;;
13973;SDS011;7060;43.770;4.008;2023-12-07T08:28:55;2.37;;;1.57;;
13973;SDS011;7060;43.770;4.008;2023-12-07T08:31:23;4.23;;;1.20;;
13973;SDS011;7060;43.770;4.008;2023-12-07T08:34:29;5.20;;;1.60;;
13973;SDS011;7060;43.770;4.008;2023-12-07T08:37:23;3.00;;;1.50;;
13973;SDS011;7060;43.770;4.008;2023-12-07T08:39:52;2.73;;;1.40;;
13973;SDS011;7060;43.770;4.008;2023-12-07T08:42:23;5.47;;;2.80;;
13973;SDS011;7060;43.770;4.008;2023-12-07T08:44:53;7.37;;;3.87;;
13973;SDS011;7060;43.770;4.008;2023-12-07T08:47:24;6.60;;;4.67;;
13973;SDS011;7060;43.770;4.008;2023-12-07T08:49:54;29.50;;;16.07;;
13973;SDS011;7060;43.770;4.008;2023-12-07T08:52:25;45.53;;;27.50;;
13973;SDS011;7060;43.770;4.008;2023-12-07T08:55:10;21.67;;;13.40;;
13973;SDS011;7060;43.770;4.008;2023-12-07T08:57:50;18.57;;;10.43;;
13973;SDS011;7060;43.770;4.008;2023-12-07T09:00:21;6.60;;;3.67;;
13973;SDS011;7060;43.770;4.008;2023-12-07T09:06:53;6.67;;;2.67;;
13973;SDS011;7060;43.770;4.008;2023-12-07T09:09:22;6.03;;;2.80;;
13973;SDS011;7060;43.770;4.008;2023-12-07T09:11:53;5.70;;;2.53;;
13973;SDS011;7060;43.770;4.008;2023-12-07T09:14:23;9.13;;;6.00;;
13973;SDS011;7060;43.770;4.008;2023-12-07T09:16:53;13.10;;;9.20;;
13973;SDS011;7060;43.770;4.008;2023-12-07T09:19:22;8.90;;;4.83;;
13973;SDS011;7060;43.770;4.008;2023-12-07T09:27:02;11.33;;;5.37;;
13973;SDS011;7060;43.770;4.008;2023-12-07T09:29:32;5.03;;;2.97;;
13973;SDS011;7060;43.770;4.008;2023-12-07T09:32:01;5.53;;;2.97;;
13973;SDS011;7060;43.770;4.008;2023-12-07T09:34:30;5.97;;;3.90;;
13973;SDS011;7060;43.770;4.008;2023-12-07T09:37:06;4.33;;;2.57;;
13973;SDS011;7060;43.770;4.008;2023-12-07T09:39:35;8.30;;;3.77;;
13973;SDS011;7060;43.770;4.008;2023-12-07T09:42:04;5.40;;;3.10;;
13973;SDS011;7060;43.770;4.008;2023-12-07T09:44:35;4.97;;;2.13;;
13973;SDS011;7060;43.770;4.008;2023-12-07T09:47:04;3.60;;;2.07;;
13973;SDS011;7060;43.770;4.008;2023-12-07T09:49:34;4.13;;;1.90;;
13973;SDS011;7060;43.770;4.008;2023-12-07T09:52:03;3.30;;;1.70;;
13973;SDS011;7060;43.770;4.008;2023-12-07T09:54:34;4.07;;;2.30;;
13973;SDS011;7060;43.770;4.008;2023-12-07T09:57:08;7.53;;;4.13;;
13973;SDS011;7060;43.770;4.008;2023-12-07T09:59:39;9.13;;;4.70;;
13973;SDS011;7060;43.770;4.008;2023-12-07T10:08:49;4.57;;;2.47;;
13973;SDS011;7060;43.770;4.008;2023-12-07T10:11:18;4.50;;;1.47;;
13973;SDS011;7060;43.770;4.008;2023-12-07T10:13:49;3.93;;;1.37;;
13973;SDS011;7060;43.770;4.008;2023-12-07T10:16:19;2.47;;;1.07;;
13973;SDS011;7060;43.770;4.008;2023-12-07T10:18:48;2.43;;;0.90;;
13973;SDS011;7060;43.770;4.008;2023-12-07T10:21:18;2.23;;;0.83;;
13973;SDS011;7060;43.770;4.008;2023-12-07T10:23:59;3.03;;;0.77;;
13973;SDS011;7060;43.770;4.008;2023-12-07T10:26:30;1.60;;;0.73;;
13973;SDS011;7060;43.770;4.008;2023-12-07T10:29:00;2.60;;;0.97;;
13973;SDS011;7060;43.770;4.008;2023-12-07T10:31:30;2.03;;;0.90;;
13973;SDS011;7060;43.770;4.008;2023-12-07T10:33:59;1.83;;;1.17;;
13973;SDS011;7060;43.770;4.008;2023-12-07T10:36:28;2.00;;;1.10;;
13973;SDS011;7060;43.770;4.008;2023-12-07T10:38:58;2.50;;;1.20;;
13973;SDS011;7060;43.770;4.008;2023-12-07T10:41:28;1.57;;;0.93;;
13973;SDS011;7060;43.770;4.008;2023-12-07T10:43:59;2.13;;;1.07;;
13973;SDS011;7060;43.770;4.008;2023-12-07T10:46:32;2.73;;;0.97;;
13973;SDS011;7060;43.770;4.008;2023-12-07T10:49:03;5.00;;;1.13;;
13973;SDS011;7060;43.770;4.008;2023-12-07T10:51:49;2.53;;;1.03;;
13973;SDS011;7060;43.770;4.008;2023-12-07T10:54:23;1.37;;;0.90;;
13973;SDS011;7060;43.770;4.008;2023-12-07T10:57:09;1.50;;;0.80;;
13973;SDS011;7060;43.770;4.008;2023-12-07T10:59:41;2.00;;;0.93;;
13973;SDS011;7060;43.770;4.008;2023-12-07T11:02:13;1.90;;;1.13;;
13973;SDS011;7060;43.770;4.008;2023-12-07T11:13:22;2.07;;;1.00;;
13973;SDS011;7060;43.770;4.008;2023-12-07T11:15:59;2.80;;;1.27;;
13973;SDS011;7060;43.770;4.008;2023-12-07T11:18:30;1.70;;;1.00;;
13973;SDS011;7060;43.770;4.008;2023-12-07T11:25:22;1.97;;;1.00;;
13973;SDS011;7060;43.770;4.008;2023-12-07T11:36:13;4.33;;;1.10;;
13973;SDS011;7060;43.770;4.008;2023-12-07T11:41:58;4.77;;;1.63;;
13973;SDS011;7060;43.770;4.008;2023-12-07T11:44:36;4.40;;;2.20;;
13973;SDS011;7060;43.770;4.008;2023-12-07T11:47:10;5.70;;;2.40;;
13973;SDS011;7060;43.770;4.008;2023-12-07T11:49:44;2.20;;;1.10;;
13973;SDS011;7060;43.770;4.008;2023-12-07T11:56:55;2.30;;;1.20;;
13973;SDS011;7060;43.770;4.008;2023-12-07T11:59:24;3.70;;;1.30;;
13973;SDS011;7060;43.770;4.008;2023-12-07T12:02:00;2.63;;;1.33;;
13973;SDS011;7060;43.770;4.008;2023-12-07T12:04:31;2.13;;;1.50;;
13973;SDS011;7060;43.770;4.008;2023-12-07T12:07:00;2.63;;;1.40;;
13973;SDS011;7060;43.770;4.008;2023-12-07T12:09:29;3.10;;;1.60;;
13973;SDS011;7060;43.770;4.008;2023-12-07T12:12:02;5.47;;;1.60;;
13973;SDS011;7060;43.770;4.008;2023-12-07T12:14:31;4.13;;;1.67;;
13973;SDS011;7060;43.770;4.008;2023-12-07T12:17:00;4.33;;;1.43;;
13973;SDS011;7060;43.770;4.008;2023-12-07T12:19:29;4.27;;;1.13;;
13973;SDS011;7060;43.770;4.008;2023-12-07T12:22:02;2.23;;;1.07;;
13973;SDS011;7060;43.770;4.008;2023-12-07T12:24:34;5.93;;;2.07;;
13973;SDS011;7060;43.770;4.008;2023-12-07T12:27:06;4.13;;;1.77;;
13973;SDS011;7060;43.770;4.008;2023-12-07T12:29:35;3.33;;;1.33;;
13973;SDS011;7060;43.770;4.008;2023-12-07T12:32:05;2.63;;;1.60;;
13973;SDS011;7060;43.770;4.008;2023-12-07T12:34:34;2.73;;;1.10;;
13973;SDS011;7060;43.770;4.008;2023-12-07T12:37:03;1.90;;;1.07;;
13973;SDS011;7060;43.770;4.008;2023-12-07T12:39:34;3.20;;;0.90;;
13973;SDS011;7060;43.770;4.008;2023-12-07T12:42:03;2.60;;;1.37;;
13973;SDS011;7060;43.770;4.008;2023-12-07T12:44:34;7.07;;;1.30;;
13973;SDS011;7060;43.770;4.008;2023-12-07T12:47:05;4.43;;;1.20;;
13973;SDS011;7060;43.770;4.008;2023-12-07T12:49:37;3.87;;;1.27;;
13973;SDS011;7060;43.770;4.008;2023-12-07T12:52:09;2.40;;;1.30;;
13973;SDS011;7060;43.770;4.008;2023-12-07T12:54:42;2.93;;;1.10;;
13973;SDS011;7060;43.770;4.008;2023-12-07T12:57:12;2.27;;;1.30;;
13973;SDS011;7060;43.770;4.008;2023-12-07T12:59:42;3.87;;;1.10;;
13973;SDS011;7060;43.770;4.008;2023-12-07T13:02:12;4.57;;;1.80;;
13973;SDS011;7060;43.770;4.008;2023-12-07T13:04:41;5.43;;;1.60;;
13973;SDS011;7060;43.770;4.008;2023-12-07T13:07:11;3.43;;;1.57;;
13973;SDS011;7060;43.770;4.008;2023-12-07T13:09:41;1.87;;;1.30;;
13973;SDS011;7060;43.770;4.008;2023-12-07T13:12:10;2.53;;;1.20;;
13973;SDS011;7060;43.770;4.008;2023-12-07T13:14:40;4.07;;;1.40;;
13973;SDS011;7060;43.770;4.008;2023-12-07T13:17:16;1.77;;;1.00;;
13973;SDS011;7060;43.770;4.008;2023-12-07T13:19:44;2.00;;;1.03;;
13973;SDS011;7060;43.770;4.008;2023-12-07T13:22:14;5.30;;;1.27;;
13973;SDS011;7060;43.770;4.008;2023-12-07T13:24:45;26.37;;;2.97;;
13973;SDS011;7060;43.770;4.008;2023-12-07T13:27:16;15.60;;;2.60;;
13973;SDS011;7060;43.770;4.008;2023-12-07T13:29:46;2.40;;;1.40;;
13973;SDS011;7060;43.770;4.008;2023-12-07T13:32:16;2.00;;;1.40;;
13973;SDS011;7060;43.770;4.008;2023-12-07T13:34:45;4.60;;;2.30;;
13973;SDS011;7060;43.770;4.008;2023-12-07T13:37:15;2.30;;;1.47;;
13973;SDS011;7060;43.770;4.008;2023-12-07T13:43:50;2.07;;;1.03;;
13973;SDS011;7060;43.770;4.008;2023-12-07T13:46:56;1.83;;;1.00;;
13973;SDS011;7060;43.770;4.008;2023-12-07T13:49:25;3.83;;;2.03;;
13973;SDS011;7060;43.770;4.008;2023-12-07T13:52:00;2.77;;;1.83;;
13973;SDS011;7060;43.770;4.008;2023-12-07T13:54:34;1.77;;;1.27;;
13973;SDS011;7060;43.770;4.008;2023-12-07T13:57:19;5.23;;;1.90;;
13973;SDS011;7060;43.770;4.008;2023-12-07T13:59:52;4.57;;;1.87;;
13973;SDS011;7060;43.770;4.008;2023-12-07T14:02:24;2.77;;;1.63;;
13973;SDS011;7060;43.770;4.008;2023-12-07T14:04:56;3.77;;;1.60;;
13973;SDS011;7060;43.770;4.008;2023-12-07T14:11:35;4.37;;;1.20;;
13973;SDS011;7060;43.770;4.008;2023-12-07T14:14:03;2.20;;;1.13;;
13973;SDS011;7060;43.770;4.008;2023-12-07T14:16:34;4.13;;;1.00;;
13973;SDS011;7060;43.770;4.008;2023-12-07T14:19:25;5.00;;;2.60;;
13973;SDS011;7060;43.770;4.008;2023-12-07T14:21:57;1.67;;;1.13;;
13973;SDS011;7060;43.770;4.008;2023-12-07T14:24:41;2.33;;;1.73;;
13973;SDS011;7060;43.770;4.008;2023-12-07T14:27:10;7.57;;;2.10;;
13973;SDS011;7060;43.770;4.008;2023-12-07T14:29:39;5.73;;;1.83;;
13973;SDS011;7060;43.770;4.008;2023-12-07T14:32:08;2.83;;;1.60;;
13973;SDS011;7060;43.770;4.008;2023-12-07T14:34:39;2.70;;;1.23;;
13973;SDS011;7060;43.770;4.008;2023-12-07T14:37:08;4.17;;;1.40;;
13973;SDS011;7060;43.770;4.008;2023-12-07T14:39:38;5.03;;;2.17;;
13973;SDS011;7060;43.770;4.008;2023-12-07T14:42:08;3.53;;;1.50;;
13973;SDS011;7060;43.770;4.008;2023-12-07T14:44:37;9.57;;;3.07;;
13973;SDS011;7060;43.770;4.008;2023-12-07T14:47:05;3.40;;;2.17;;
13973;SDS011;7060;43.770;4.008;2023-12-07T14:49:48;7.27;;;2.67;;
13973;SDS011;7060;43.770;4.008;2023-12-07T14:52:16;5.13;;;2.67;;
13973;SDS011;7060;43.770;4.008;2023-12-07T14:54:46;5.90;;;2.13;;
13973;SDS011;7060;43.770;4.008;2023-12-07T14:57:15;3.47;;;1.60;;
13973;SDS011;7060;43.770;4.008;2023-12-07T14:59:50;2.87;;;1.67;;
13973;SDS011;7060;43.770;4.008;2023-12-07T15:02:26;5.03;;;1.40;;
13973;SDS011;7060;43.770;4.008;2023-12-07T15:11:55;8.77;;;3.03;;
13973;SDS011;7060;43.770;4.008;2023-12-07T15:14:24;7.20;;;3.27;;
13973;SDS011;7060;43.770;4.008;2023-12-07T15:28:51;362.07;;;38.93;;
13973;SDS011;7060;43.770;4.008;2023-12-07T15:31:48;60.23;;;10.93;;
13973;SDS011;7060;43.770;4.008;2023-12-07T15:34:17;17.30;;;5.07;;
13973;SDS011;7060;43.770;4.008;2023-12-07T15:36:59;7.20;;;3.80;;
13973;SDS011;7060;43.770;4.008;2023-12-07T15:39:28;112.43;;;14.10;;
13973;SDS011;7060;43.770;4.008;2023-12-07T15:41:57;29.53;;;9.20;;
13973;SDS011;7060;43.770;4.008;2023-12-07T15:44:32;11.83;;;7.67;;
13973;SDS011;7060;43.770;4.008;2023-12-07T15:47:02;36.20;;;9.63;;
13973;SDS011;7060;43.770;4.008;2023-12-07T15:57:38;43.80;;;11.27;;
13973;SDS011;7060;43.770;4.008;2023-12-07T16:06:52;13.87;;;8.17;;
13973;SDS011;7060;43.770;4.008;2023-12-07T16:09:21;11.93;;;7.70;;
13973;SDS011;7060;43.770;4.008;2023-12-07T16:11:50;8.50;;;5.50;;
13973;SDS011;7060;43.770;4.008;2023-12-07T16:14:19;38.33;;;8.87;;
13973;SDS011;7060;43.770;4.008;2023-12-07T16:16:56;30.97;;;7.27;;
13973;SDS011;7060;43.770;4.008;2023-12-07T16:19:31;15.50;;;5.83;;
13973;SDS011;7060;43.770;4.008;2023-12-07T16:22:03;5.70;;;4.30;;
13973;SDS011;7060;43.770;4.008;2023-12-07T16:24:33;6.83;;;4.80;;
13973;SDS011;7060;43.770;4.008;2023-12-07T16:27:03;7.73;;;3.83;;
13973;SDS011;7060;43.770;4.008;2023-12-07T16:29:34;10.50;;;5.37;;
13973;SDS011;7060;43.770;4.008;2023-12-07T16:32:05;8.03;;;4.93;;
13973;SDS011;7060;43.770;4.008;2023-12-07T16:34:36;6.23;;;4.37;;
13973;SDS011;7060;43.770;4.008;2023-12-07T16:37:08;6.50;;;4.97;;
13973;SDS011;7060;43.770;4.008;2023-12-07T16:39:39;7.77;;;5.33;;
13973;SDS011;7060;43.770;4.008;2023-12-07T16:42:10;9.87;;;6.60;;
13973;SDS011;7060;43.770;4.008;2023-12-07T16:44:43;16.83;;;10.70;;
13973;SDS011;7060;43.770;4.008;2023-12-07T16:47:12;25.87;;;15.63;;
13973;SDS011;7060;43.770;4.008;2023-12-07T16:49:45;26.30;;;16.13;;
13973;SDS011;7060;43.770;4.008;2023-12-07T16:52:15;13.60;;;8.33;;
13973;SDS011;7060;43.770;4.008;2023-12-07T16:54:48;8.73;;;6.67;;
13973;SDS011;7060;43.770;4.008;2023-12-07T16:57:19;9.40;;;5.80;;
13973;SDS011;7060;43.770;4.008;2023-12-07T16:59:47;7.47;;;5.10;;
13973;SDS011;7060;43.770;4.008;2023-12-07T17:02:16;9.03;;;4.37;;
13973;SDS011;7060;43.770;4.008;2023-12-07T17:04:48;8.03;;;4.43;;
13973;SDS011;7060;43.770;4.008;2023-12-07T17:07:17;6.90;;;4.07;;
13973;SDS011;7060;43.770;4.008;2023-12-07T17:09:46;7.07;;;4.07;;
13973;SDS011;7060;43.770;4.008;2023-12-07T17:12:15;9.57;;;5.53;;
13973;SDS011;7060;43.770;4.008;2023-12-07T17:18:45;8.57;;;5.80;;
13973;SDS011;7060;43.770;4.008;2023-12-07T17:28:50;11.23;;;7.23;;
13973;SDS011;7060;43.770;4.008;2023-12-07T17:31:19;10.37;;;7.00;;
13973;SDS011;7060;43.770;4.008;2023-12-07T17:33:47;8.53;;;5.10;;
13973;SDS011;7060;43.770;4.008;2023-12-07T17:36:16;7.30;;;5.50;;
13973;SDS011;7060;43.770;4.008;2023-12-07T17:42:26;10.07;;;5.63;;
13973;SDS011;7060;43.770;4.008;2023-12-07T17:44:57;12.70;;;8.80;;
13973;SDS011;7060;43.770;4.008;2023-12-07T17:47:26;12.67;;;8.73;;
13973;SDS011;7060;43.770;4.008;2023-12-07T17:49:56;10.23;;;7.43;;
13973;SDS011;7060;43.770;4.008;2023-12-07T17:52:34;17.87;;;7.80;;
13973;SDS011;7060;43.770;4.008;2023-12-07T18:01:37;11.97;;;7.07;;
13973;SDS011;7060;43.770;4.008;2023-12-07T18:04:07;11.97;;;7.47;;
13973;SDS011;7060;43.770;4.008;2023-12-07T18:06:37;11.53;;;7.27;;
13973;SDS011;7060;43.770;4.008;2023-12-07T18:09:08;10.03;;;6.00;;
13973;SDS011;7060;43.770;4.008;2023-12-07T18:11:37;7.50;;;5.40;;
13973;SDS011;7060;43.770;4.008;2023-12-07T18:14:26;8.77;;;5.60;;
13973;SDS011;7060;43.770;4.008;2023-12-07T18:16:59;9.90;;;6.23;;
13973;SDS011;7060;43.770;4.008;2023-12-07T18:19:29;12.00;;;6.17;;
13973;SDS011;7060;43.770;4.008;2023-12-07T18:21:58;6.93;;;5.90;;
13973;SDS011;7060;43.770;4.008;2023-12-07T18:24:27;7.77;;;5.80;;
13973;SDS011;7060;43.770;4.008;2023-12-07T18:26:57;6.83;;;4.70;;
13973;SDS011;7060;43.770;4.008;2023-12-07T18:29:31;7.03;;;4.33;;
13973;SDS011;7060;43.770;4.008;2023-12-07T18:32:02;7.73;;;4.87;;
13973;SDS011;7060;43.770;4.008;2023-12-07T18:34:36;7.40;;;3.83;;
13973;SDS011;7060;43.770;4.008;2023-12-07T18:37:05;6.33;;;3.67;;
13973;SDS011;7060;43.770;4.008;2023-12-07T18:39:42;4.07;;;3.23;;
13973;SDS011;7060;43.770;4.008;2023-12-07T18:42:11;8.93;;;3.70;;
13973;SDS011;7060;43.770;4.008;2023-12-07T18:44:39;5.67;;;4.50;;
13973;SDS011;7060;43.770;4.008;2023-12-07T18:47:10;7.23;;;4.23;;
13973;SDS011;7060;43.770;4.008;2023-12-07T18:49:39;7.17;;;3.93;;
13973;SDS011;7060;43.770;4.008;2023-12-07T18:52:07;6.83;;;4.00;;
13973;SDS011;7060;43.770;4.008;2023-12-07T18:54:38;8.27;;;5.27;;
13973;SDS011;7060;43.770;4.008;2023-12-07T18:57:11;6.00;;;3.57;;
13973;SDS011;7060;43.770;4.008;2023-12-07T18:59:40;7.97;;;5.03;;
13973;SDS011;7060;43.770;4.008;2023-12-07T19:02:14;7.30;;;5.03;;
13973;SDS011;7060;43.770;4.008;2023-12-07T19:04:43;7.40;;;3.43;;
13973;SDS011;7060;43.770;4.008;2023-12-07T19:07:12;4.87;;;3.80;;
13973;SDS011;7060;43.770;4.008;2023-12-07T19:09:43;5.37;;;4.03;;
13973;SDS011;7060;43.770;4.008;2023-12-07T19:15:55;6.57;;;3.20;;
13973;SDS011;7060;43.770;4.008;2023-12-07T19:18:29;6.57;;;3.30;;
13973;SDS011;7060;43.770;4.008;2023-12-07T19:21:02;6.07;;;3.60;;
13973;SDS011;7060;43.770;4.008;2023-12-07T19:23:31;5.83;;;3.10;;
13973;SDS011;7060;43.770;4.008;2023-12-07T19:26:01;5.60;;;3.67;;
13973;SDS011;7060;43.770;4.008;2023-12-07T19:28:30;5.60;;;3.17;;
13973;SDS011;7060;43.770;4.008;2023-12-07T19:31:00;5.20;;;3.83;;
13973;SDS011;7060;43.770;4.008;2023-12-07T19:33:30;6.63;;;3.77;;
13973;SDS011;7060;43.770;4.008;2023-12-07T19:36:03;5.90;;;3.53;;
13973;SDS011;7060;43.770;4.008;2023-12-07T19:38:32;5.73;;;4.13;;
13973;SDS011;7060;43.770;4.008;2023-12-07T19:41:01;8.30;;;4.73;;
13973;SDS011;7060;43.770;4.008;2023-12-07T19:43:33;6.20;;;3.87;;
13973;SDS011;7060;43.770;4.008;2023-12-07T19:46:02;6.57;;;4.30;;
13973;SDS011;7060;43.770;4.008;2023-12-07T19:48:33;6.27;;;3.97;;
13973;SDS011;7060;43.770;4.008;2023-12-07T19:51:04;7.60;;;3.87;;
13973;SDS011;7060;43.770;4.008;2023-12-07T19:53:35;5.03;;;3.67;;
13973;SDS011;7060;43.770;4.008;2023-12-07T19:56:05;5.47;;;3.90;;
13973;SDS011;7060;43.770;4.008;2023-12-07T20:02:22;6.27;;;4.17;;
13973;SDS011;7060;43.770;4.008;2023-12-07T20:04:52;6.07;;;4.13;;
13973;SDS011;7060;43.770;4.008;2023-12-07T20:07:21;6.00;;;4.00;;
13973;SDS011;7060;43.770;4.008;2023-12-07T20:09:50;7.83;;;4.37;;
13973;SDS011;7060;43.770;4.008;2023-12-07T20:12:20;6.77;;;4.00;;
13973;SDS011;7060;43.770;4.008;2023-12-07T20:14:49;6.93;;;3.80;;
13973;SDS011;7060;43.770;4.008;2023-12-07T20:17:18;6.57;;;4.07;;
13973;SDS011;7060;43.770;4.008;2023-12-07T20:19:47;8.57;;;4.83;;
13973;SDS011;7060;43.770;4.008;2023-12-07T20:22:17;7.97;;;5.10;;
13973;SDS011;7060;43.770;4.008;2023-12-07T20:24:46;7.53;;;4.70;;
13973;SDS011;7060;43.770;4.008;2023-12-07T20:27:16;7.73;;;5.40;;
13973;SDS011;7060;43.770;4.008;2023-12-07T20:29:48;9.00;;;5.90;;
13973;SDS011;7060;43.770;4.008;2023-12-07T20:32:18;7.07;;;5.37;;
13973;SDS011;7060;43.770;4.008;2023-12-07T20:34:47;9.90;;;5.30;;
13973;SDS011;7060;43.770;4.008;2023-12-07T20:40:59;10.63;;;6.30;;
13973;SDS011;7060;43.770;4.008;2023-12-07T20:43:55;8.97;;;5.43;;
13973;SDS011;7060;43.770;4.008;2023-12-07T20:46:24;7.73;;;5.17;;
13973;SDS011;7060;43.770;4.008;2023-12-07T20:48:53;10.10;;;6.33;;
13973;SDS011;7060;43.770;4.008;2023-12-07T20:51:22;8.17;;;5.30;;
13973;SDS011;7060;43.770;4.008;2023-12-07T20:53:51;9.90;;;5.70;;
13973;SDS011;7060;43.770;4.008;2023-12-07T20:56:21;9.03;;;5.90;;
13973;SDS011;7060;43.770;4.008;2023-12-07T20:59:00;7.87;;;6.07;;
13973;SDS011;7060;43.770;4.008;2023-12-07T21:01:28;7.67;;;5.60;;
13973;SDS011;7060;43.770;4.008;2023-12-07T21:04:00;7.53;;;5.90;;
13973;SDS011;7060;43.770;4.008;2023-12-07T21:17:03;10.00;;;6.20;;
13973;SDS011;7060;43.770;4.008;2023-12-07T21:19:46;10.43;;;6.10;;
13973;SDS011;7060;43.770;4.008;2023-12-07T21:22:15;7.50;;;5.40;;
13973;SDS011;7060;43.770;4.008;2023-12-07T21:24:44;7.27;;;5.30;;
13973;SDS011;7060;43.770;4.008;2023-12-07T21:27:13;7.57;;;5.20;;
13973;SDS011;7060;43.770;4.008;2023-12-07T21:29:48;7.73;;;4.83;;
13973;SDS011;7060;43.770;4.008;2023-12-07T21:32:27;5.30;;;4.30;;
13973;SDS011;7060;43.770;4.008;2023-12-07T21:34:56;7.87;;;5.23;;
13973;SDS011;7060;43.770;4.008;2023-12-07T21:45:12;8.23;;;5.07;;
13973;SDS011;7060;43.770;4.008;2023-12-07T21:56:26;10.77;;;5.43;;
13973;SDS011;7060;43.770;4.008;2023-12-07T21:58:56;5.13;;;4.13;;
13973;SDS011;7060;43.770;4.008;2023-12-07T22:01:29;9.60;;;4.80;;